Ashby, Massachusetts
Current Conditions -  °F | °C
As of 10:52 AM on Friday 19 Dec 2014 (Local Time) from KFIT Reporting Station
Overcast Overcast  
Wind Chill: 24°   Ceiling: 2900
Heat Index: 33°   Visibility: 10mi
Dew Point: 20°   Wind: 13mph
Humidity: 59%   Direction: 330°NNW
Pressure: 29.97"   Gusts: 22mph
Location:  42.68°N, 71.82°W
Report Text: KFIT 191552Z AUTO 33011G19KT 10SM OVC029 01/M07 A2997 RMK AO2 SLP151 T00061067
Loading
Personal Weather Stations






























Interactive Weather Map New forecast layout! Learn more

10-Day Weather Forecast

Advertisements
Track Severe Weather on mobile